sensor_id;sensor_type;location;lat;lon;timestamp;P1;durP1;ratioP1;P2;durP2;ratioP2
45366;SDS011;31100;55.848;37.636;2023-03-23T00:00:46;4.53;;;3.00;;
45366;SDS011;31100;55.848;37.636;2023-03-23T00:03:12;4.15;;;2.40;;
45366;SDS011;31100;55.848;37.636;2023-03-23T00:05:38;3.60;;;2.35;;
45366;SDS011;31100;55.848;37.636;2023-03-23T00:08:06;4.00;;;2.35;;
45366;SDS011;31100;55.848;37.636;2023-03-23T00:10:36;4.90;;;2.70;;
45366;SDS011;31100;55.848;37.636;2023-03-23T00:13:02;4.53;;;3.00;;
45366;SDS011;31100;55.848;37.636;2023-03-23T00:15:28;3.42;;;2.38;;
45366;SDS011;31100;55.848;37.636;2023-03-23T00:18:01;4.00;;;2.40;;
45366;SDS011;31100;55.848;37.636;2023-03-23T00:20:30;5.22;;;2.95;;
45366;SDS011;31100;55.848;37.636;2023-03-23T00:23:02;4.20;;;2.17;;
45366;SDS011;31100;55.848;37.636;2023-03-23T00:25:29;3.97;;;2.47;;
45366;SDS011;31100;55.848;37.636;2023-03-23T00:27:54;4.32;;;2.45;;
45366;SDS011;31100;55.848;37.636;2023-03-23T00:30:20;4.10;;;2.60;;
45366;SDS011;31100;55.848;37.636;2023-03-23T00:32:47;4.13;;;2.35;;
45366;SDS011;31100;55.848;37.636;2023-03-23T00:35:13;4.68;;;2.72;;
45366;SDS011;31100;55.848;37.636;2023-03-23T00:37:39;4.95;;;2.40;;
45366;SDS011;31100;55.848;37.636;2023-03-23T00:40:05;4.47;;;2.55;;
45366;SDS011;31100;55.848;37.636;2023-03-23T00:42:34;4.35;;;2.60;;
45366;SDS011;31100;55.848;37.636;2023-03-23T00:45:02;3.83;;;2.40;;
45366;SDS011;31100;55.848;37.636;2023-03-23T00:47:29;3.83;;;2.33;;
45366;SDS011;31100;55.848;37.636;2023-03-23T00:49:55;3.65;;;2.45;;
45366;SDS011;31100;55.848;37.636;2023-03-23T00:52:21;4.07;;;2.58;;
45366;SDS011;31100;55.848;37.636;2023-03-23T00:54:47;4.70;;;2.40;;
45366;SDS011;31100;55.848;37.636;2023-03-23T00:57:12;3.88;;;2.50;;
45366;SDS011;31100;55.848;37.636;2023-03-23T00:59:38;3.67;;;2.50;;
45366;SDS011;31100;55.848;37.636;2023-03-23T01:02:03;4.30;;;2.60;;
45366;SDS011;31100;55.848;37.636;2023-03-23T01:04:29;6.47;;;2.58;;
45366;SDS011;31100;55.848;37.636;2023-03-23T01:06:56;3.80;;;2.42;;
45366;SDS011;31100;55.848;37.636;2023-03-23T01:09:25;3.80;;;2.42;;
45366;SDS011;31100;55.848;37.636;2023-03-23T01:11:52;3.90;;;2.20;;
45366;SDS011;31100;55.848;37.636;2023-03-23T01:14:20;4.22;;;2.70;;
45366;SDS011;31100;55.848;37.636;2023-03-23T01:16:46;4.00;;;2.55;;
45366;SDS011;31100;55.848;37.636;2023-03-23T01:19:12;4.63;;;2.50;;
45366;SDS011;31100;55.848;37.636;2023-03-23T01:21:37;3.78;;;2.55;;
45366;SDS011;31100;55.848;37.636;2023-03-23T01:24:03;5.63;;;2.85;;
45366;SDS011;31100;55.848;37.636;2023-03-23T01:26:29;4.22;;;2.50;;
45366;SDS011;31100;55.848;37.636;2023-03-23T01:28:55;5.60;;;2.83;;
45366;SDS011;31100;55.848;37.636;2023-03-23T01:31:22;4.22;;;2.80;;
45366;SDS011;31100;55.848;37.636;2023-03-23T01:33:50;4.70;;;3.10;;
45366;SDS011;31100;55.848;37.636;2023-03-23T01:36:18;4.97;;;2.83;;
45366;SDS011;31100;55.848;37.636;2023-03-23T01:38:46;4.93;;;3.28;;
45366;SDS011;31100;55.848;37.636;2023-03-23T01:41:12;6.05;;;2.95;;
45366;SDS011;31100;55.848;37.636;2023-03-23T01:43:55;5.07;;;3.05;;
45366;SDS011;31100;55.848;37.636;2023-03-23T01:46:32;5.75;;;2.92;;
45366;SDS011;31100;55.848;37.636;2023-03-23T01:49:03;9.43;;;3.38;;
45366;SDS011;31100;55.848;37.636;2023-03-23T01:51:34;6.22;;;3.22;;
45366;SDS011;31100;55.848;37.636;2023-03-23T01:54:02;6.13;;;3.08;;
45366;SDS011;31100;55.848;37.636;2023-03-23T01:56:41;4.30;;;2.95;;
45366;SDS011;31100;55.848;37.636;2023-03-23T01:59:11;4.57;;;2.95;;
45366;SDS011;31100;55.848;37.636;2023-03-23T02:01:37;6.10;;;3.35;;
45366;SDS011;31100;55.848;37.636;2023-03-23T02:04:08;6.82;;;4.38;;
45366;SDS011;31100;55.848;37.636;2023-03-23T02:06:34;8.35;;;3.72;;
45366;SDS011;31100;55.848;37.636;2023-03-23T02:08:59;4.72;;;2.97;;
45366;SDS011;31100;55.848;37.636;2023-03-23T02:11:25;5.72;;;3.08;;
45366;SDS011;31100;55.848;37.636;2023-03-23T02:13:50;6.22;;;3.63;;
45366;SDS011;31100;55.848;37.636;2023-03-23T02:24:10;6.88;;;3.65;;
45366;SDS011;31100;55.848;37.636;2023-03-23T02:27:03;7.07;;;3.92;;
45366;SDS011;31100;55.848;37.636;2023-03-23T02:35:34;7.10;;;3.65;;
45366;SDS011;31100;55.848;37.636;2023-03-23T02:38:01;7.10;;;2.90;;
45366;SDS011;31100;55.848;37.636;2023-03-23T02:40:32;5.22;;;3.08;;
45366;SDS011;31100;55.848;37.636;2023-03-23T02:43:01;6.35;;;3.47;;
45366;SDS011;31100;55.848;37.636;2023-03-23T02:45:27;5.28;;;3.25;;
45366;SDS011;31100;55.848;37.636;2023-03-23T02:47:54;8.15;;;3.80;;
45366;SDS011;31100;55.848;37.636;2023-03-23T02:50:21;6.13;;;3.42;;
45366;SDS011;31100;55.848;37.636;2023-03-23T02:52:48;5.75;;;2.95;;
45366;SDS011;31100;55.848;37.636;2023-03-23T02:55:15;5.30;;;3.10;;
45366;SDS011;31100;55.848;37.636;2023-03-23T02:57:42;6.57;;;3.15;;
45366;SDS011;31100;55.848;37.636;2023-03-23T03:00:11;5.65;;;3.33;;
45366;SDS011;31100;55.848;37.636;2023-03-23T03:02:39;6.95;;;3.50;;
45366;SDS011;31100;55.848;37.636;2023-03-23T03:08:31;7.25;;;3.63;;
45366;SDS011;31100;55.848;37.636;2023-03-23T03:11:08;7.90;;;3.75;;
45366;SDS011;31100;55.848;37.636;2023-03-23T03:18:32;10.02;;;3.58;;
45366;SDS011;31100;55.848;37.636;2023-03-23T03:21:03;8.70;;;4.18;;
45366;SDS011;31100;55.848;37.636;2023-03-23T03:23:32;6.35;;;4.07;;
45366;SDS011;31100;55.848;37.636;2023-03-23T03:25:58;6.68;;;3.63;;
45366;SDS011;31100;55.848;37.636;2023-03-23T03:28:25;6.57;;;3.60;;
45366;SDS011;31100;55.848;37.636;2023-03-23T03:30:56;5.82;;;3.10;;
45366;SDS011;31100;55.848;37.636;2023-03-23T03:33:23;5.38;;;3.35;;
45366;SDS011;31100;55.848;37.636;2023-03-23T03:35:55;6.45;;;3.30;;
45366;SDS011;31100;55.848;37.636;2023-03-23T03:38:25;4.95;;;3.45;;
45366;SDS011;31100;55.848;37.636;2023-03-23T03:40:53;7.10;;;3.55;;
45366;SDS011;31100;55.848;37.636;2023-03-23T03:43:20;6.13;;;3.60;;
45366;SDS011;31100;55.848;37.636;2023-03-23T03:45:45;6.30;;;3.60;;
45366;SDS011;31100;55.848;37.636;2023-03-23T03:48:11;5.75;;;3.53;;
45366;SDS011;31100;55.848;37.636;2023-03-23T03:50:37;7.75;;;4.10;;
45366;SDS011;31100;55.848;37.636;2023-03-23T03:53:02;6.82;;;3.90;;
45366;SDS011;31100;55.848;37.636;2023-03-23T03:55:29;6.88;;;3.58;;
45366;SDS011;31100;55.848;37.636;2023-03-23T03:58:00;10.25;;;4.18;;
45366;SDS011;31100;55.848;37.636;2023-03-23T04:00:26;6.40;;;4.03;;
45366;SDS011;31100;55.848;37.636;2023-03-23T04:02:51;7.03;;;4.38;;
45366;SDS011;31100;55.848;37.636;2023-03-23T04:05:19;9.73;;;3.95;;
45366;SDS011;31100;55.848;37.636;2023-03-23T04:07:48;7.45;;;4.45;;
45366;SDS011;31100;55.848;37.636;2023-03-23T04:10:17;7.80;;;4.38;;
45366;SDS011;31100;55.848;37.636;2023-03-23T04:12:47;8.63;;;4.78;;
45366;SDS011;31100;55.848;37.636;2023-03-23T04:15:13;6.10;;;3.90;;
45366;SDS011;31100;55.848;37.636;2023-03-23T04:17:39;8.10;;;4.20;;
45366;SDS011;31100;55.848;37.636;2023-03-23T04:20:06;8.00;;;4.80;;
45366;SDS011;31100;55.848;37.636;2023-03-23T04:22:36;8.23;;;4.78;;
45366;SDS011;31100;55.848;37.636;2023-03-23T04:25:02;7.72;;;4.78;;
45366;SDS011;31100;55.848;37.636;2023-03-23T04:27:31;10.05;;;5.70;;
45366;SDS011;31100;55.848;37.636;2023-03-23T04:29:57;6.13;;;4.40;;
45366;SDS011;31100;55.848;37.636;2023-03-23T04:32:26;9.50;;;4.55;;
45366;SDS011;31100;55.848;37.636;2023-03-23T04:34:57;6.97;;;4.28;;
45366;SDS011;31100;55.848;37.636;2023-03-23T04:37:25;6.75;;;4.30;;
45366;SDS011;31100;55.848;37.636;2023-03-23T04:39:58;8.40;;;4.95;;
45366;SDS011;31100;55.848;37.636;2023-03-23T04:42:31;8.40;;;5.85;;
45366;SDS011;31100;55.848;37.636;2023-03-23T04:44:57;7.97;;;4.70;;
45366;SDS011;31100;55.848;37.636;2023-03-23T04:47:24;8.55;;;5.07;;
45366;SDS011;31100;55.848;37.636;2023-03-23T04:49:55;7.05;;;4.72;;
45366;SDS011;31100;55.848;37.636;2023-03-23T04:52:21;9.45;;;5.30;;
45366;SDS011;31100;55.848;37.636;2023-03-23T04:54:47;7.28;;;4.68;;
45366;SDS011;31100;55.848;37.636;2023-03-23T04:57:13;8.30;;;5.35;;
45366;SDS011;31100;55.848;37.636;2023-03-23T04:59:40;10.30;;;5.25;;
45366;SDS011;31100;55.848;37.636;2023-03-23T05:02:06;9.57;;;5.35;;
45366;SDS011;31100;55.848;37.636;2023-03-23T05:04:32;8.52;;;5.15;;
45366;SDS011;31100;55.848;37.636;2023-03-23T05:06:58;8.25;;;5.20;;
45366;SDS011;31100;55.848;37.636;2023-03-23T05:09:24;8.75;;;5.07;;
45366;SDS011;31100;55.848;37.636;2023-03-23T05:11:49;8.50;;;5.38;;
45366;SDS011;31100;55.848;37.636;2023-03-23T05:14:15;8.27;;;5.35;;
45366;SDS011;31100;55.848;37.636;2023-03-23T05:16:41;10.25;;;5.00;;
45366;SDS011;31100;55.848;37.636;2023-03-23T05:19:06;9.38;;;6.05;;
45366;SDS011;31100;55.848;37.636;2023-03-23T05:21:33;10.40;;;5.72;;
45366;SDS011;31100;55.848;37.636;2023-03-23T05:23:59;9.98;;;5.53;;
45366;SDS011;31100;55.848;37.636;2023-03-23T05:26:26;7.95;;;5.55;;
45366;SDS011;31100;55.848;37.636;2023-03-23T05:28:56;9.48;;;5.20;;
45366;SDS011;31100;55.848;37.636;2023-03-23T05:31:22;11.68;;;5.50;;
45366;SDS011;31100;55.848;37.636;2023-03-23T05:33:49;7.95;;;5.60;;
45366;SDS011;31100;55.848;37.636;2023-03-23T05:36:14;9.23;;;5.57;;
45366;SDS011;31100;55.848;37.636;2023-03-23T05:38:41;9.07;;;5.60;;
45366;SDS011;31100;55.848;37.636;2023-03-23T05:41:13;9.13;;;5.57;;
45366;SDS011;31100;55.848;37.636;2023-03-23T05:43:41;12.93;;;5.97;;
45366;SDS011;31100;55.848;37.636;2023-03-23T05:46:07;13.27;;;5.63;;
45366;SDS011;31100;55.848;37.636;2023-03-23T05:48:33;11.07;;;5.80;;
45366;SDS011;31100;55.848;37.636;2023-03-23T05:50:59;11.48;;;6.28;;
45366;SDS011;31100;55.848;37.636;2023-03-23T05:53:25;13.65;;;6.22;;
45366;SDS011;31100;55.848;37.636;2023-03-23T05:55:51;15.68;;;7.20;;
45366;SDS011;31100;55.848;37.636;2023-03-23T05:58:17;12.93;;;6.78;;
45366;SDS011;31100;55.848;37.636;2023-03-23T06:00:43;11.52;;;6.18;;
45366;SDS011;31100;55.848;37.636;2023-03-23T06:03:10;10.63;;;6.03;;
45366;SDS011;31100;55.848;37.636;2023-03-23T06:05:41;11.75;;;5.97;;
45366;SDS011;31100;55.848;37.636;2023-03-23T06:08:09;11.18;;;6.40;;
45366;SDS011;31100;55.848;37.636;2023-03-23T06:10:34;11.18;;;6.82;;
45366;SDS011;31100;55.848;37.636;2023-03-23T06:13:01;12.40;;;6.72;;
45366;SDS011;31100;55.848;37.636;2023-03-23T06:15:27;12.73;;;7.50;;
45366;SDS011;31100;55.848;37.636;2023-03-23T06:17:57;12.93;;;7.55;;
45366;SDS011;31100;55.848;37.636;2023-03-23T06:20:27;12.05;;;6.90;;
45366;SDS011;31100;55.848;37.636;2023-03-23T06:22:52;12.57;;;7.72;;
45366;SDS011;31100;55.848;37.636;2023-03-23T06:25:18;12.93;;;6.85;;
45366;SDS011;31100;55.848;37.636;2023-03-23T06:27:44;10.82;;;7.10;;
45366;SDS011;31100;55.848;37.636;2023-03-23T06:30:10;11.68;;;6.95;;
45366;SDS011;31100;55.848;37.636;2023-03-23T06:32:37;15.43;;;7.40;;
45366;SDS011;31100;55.848;37.636;2023-03-23T06:35:03;11.40;;;6.88;;
45366;SDS011;31100;55.848;37.636;2023-03-23T06:37:29;10.00;;;7.03;;
45366;SDS011;31100;55.848;37.636;2023-03-23T06:39:55;11.23;;;6.70;;
45366;SDS011;31100;55.848;37.636;2023-03-23T06:42:22;11.98;;;7.05;;
45366;SDS011;31100;55.848;37.636;2023-03-23T06:44:50;12.80;;;7.75;;
45366;SDS011;31100;55.848;37.636;2023-03-23T06:47:15;12.35;;;7.15;;
45366;SDS011;31100;55.848;37.636;2023-03-23T06:49:41;13.77;;;7.57;;
45366;SDS011;31100;55.848;37.636;2023-03-23T06:52:07;13.50;;;7.70;;
45366;SDS011;31100;55.848;37.636;2023-03-23T06:54:33;11.65;;;8.07;;
45366;SDS011;31100;55.848;37.636;2023-03-23T06:56:58;11.35;;;7.28;;
45366;SDS011;31100;55.848;37.636;2023-03-23T06:59:24;12.90;;;7.15;;
45366;SDS011;31100;55.848;37.636;2023-03-23T07:01:50;13.70;;;7.90;;
45366;SDS011;31100;55.848;37.636;2023-03-23T07:04:15;12.20;;;7.53;;
45366;SDS011;31100;55.848;37.636;2023-03-23T07:06:41;15.68;;;7.85;;
45366;SDS011;31100;55.848;37.636;2023-03-23T07:09:07;13.82;;;7.50;;
45366;SDS011;31100;55.848;37.636;2023-03-23T07:11:33;13.30;;;7.60;;
45366;SDS011;31100;55.848;37.636;2023-03-23T07:13:58;13.65;;;7.80;;
45366;SDS011;31100;55.848;37.636;2023-03-23T07:16:24;11.90;;;7.22;;
45366;SDS011;31100;55.848;37.636;2023-03-23T07:18:49;11.20;;;7.97;;
45366;SDS011;31100;55.848;37.636;2023-03-23T07:21:15;13.00;;;7.72;;
45366;SDS011;31100;55.848;37.636;2023-03-23T07:23:41;13.88;;;7.50;;
45366;SDS011;31100;55.848;37.636;2023-03-23T07:26:07;11.73;;;7.28;;
45366;SDS011;31100;55.848;37.636;2023-03-23T07:28:32;13.27;;;6.95;;
45366;SDS011;31100;55.848;37.636;2023-03-23T07:30:58;10.20;;;6.75;;
45366;SDS011;31100;55.848;37.636;2023-03-23T07:33:23;12.82;;;6.72;;
45366;SDS011;31100;55.848;37.636;2023-03-23T07:35:49;11.50;;;6.80;;
45366;SDS011;31100;55.848;37.636;2023-03-23T07:38:15;11.95;;;7.13;;
45366;SDS011;31100;55.848;37.636;2023-03-23T07:40:40;12.20;;;6.65;;
45366;SDS011;31100;55.848;37.636;2023-03-23T07:43:06;11.90;;;7.28;;
45366;SDS011;31100;55.848;37.636;2023-03-23T07:45:32;10.80;;;7.82;;
45366;SDS011;31100;55.848;37.636;2023-03-23T07:47:58;11.20;;;6.97;;
45366;SDS011;31100;55.848;37.636;2023-03-23T07:50:24;11.88;;;7.50;;
45366;SDS011;31100;55.848;37.636;2023-03-23T07:52:50;14.90;;;7.05;;
45366;SDS011;31100;55.848;37.636;2023-03-23T07:55:18;12.57;;;6.75;;
45366;SDS011;31100;55.848;37.636;2023-03-23T07:57:44;15.23;;;7.05;;
45366;SDS011;31100;55.848;37.636;2023-03-23T08:00:10;8.88;;;6.15;;
45366;SDS011;31100;55.848;37.636;2023-03-23T08:02:48;10.27;;;6.38;;
45366;SDS011;31100;55.848;37.636;2023-03-23T08:05:20;12.13;;;7.10;;
45366;SDS011;31100;55.848;37.636;2023-03-23T08:07:47;15.93;;;6.30;;
45366;SDS011;31100;55.848;37.636;2023-03-23T08:10:13;10.73;;;6.30;;
45366;SDS011;31100;55.848;37.636;2023-03-23T08:12:40;12.48;;;6.45;;
45366;SDS011;31100;55.848;37.636;2023-03-23T08:15:07;10.55;;;6.07;;
45366;SDS011;31100;55.848;37.636;2023-03-23T08:17:34;11.35;;;6.32;;
45366;SDS011;31100;55.848;37.636;2023-03-23T08:20:01;10.57;;;6.20;;
45366;SDS011;31100;55.848;37.636;2023-03-23T08:22:34;11.43;;;5.93;;
45366;SDS011;31100;55.848;37.636;2023-03-23T08:25:01;11.65;;;6.18;;
45366;SDS011;31100;55.848;37.636;2023-03-23T08:27:30;10.52;;;6.38;;
45366;SDS011;31100;55.848;37.636;2023-03-23T08:29:55;10.30;;;6.68;;
45366;SDS011;31100;55.848;37.636;2023-03-23T08:32:21;9.98;;;6.38;;
45366;SDS011;31100;55.848;37.636;2023-03-23T08:34:47;11.23;;;7.13;;
45366;SDS011;31100;55.848;37.636;2023-03-23T08:37:14;12.00;;;6.65;;
45366;SDS011;31100;55.848;37.636;2023-03-23T08:39:39;14.25;;;7.85;;
45366;SDS011;31100;55.848;37.636;2023-03-23T08:42:05;13.43;;;6.60;;
45366;SDS011;31100;55.848;37.636;2023-03-23T08:44:31;12.52;;;6.47;;
45366;SDS011;31100;55.848;37.636;2023-03-23T08:46:56;14.18;;;6.65;;
45366;SDS011;31100;55.848;37.636;2023-03-23T08:49:25;11.90;;;7.18;;
45366;SDS011;31100;55.848;37.636;2023-03-23T08:51:51;13.18;;;6.55;;
45366;SDS011;31100;55.848;37.636;2023-03-23T08:54:16;12.65;;;6.95;;
45366;SDS011;31100;55.848;37.636;2023-03-23T08:56:42;11.38;;;6.28;;
45366;SDS011;31100;55.848;37.636;2023-03-23T08:59:08;12.38;;;6.07;;
45366;SDS011;31100;55.848;37.636;2023-03-23T09:01:34;11.05;;;6.70;;
45366;SDS011;31100;55.848;37.636;2023-03-23T09:04:00;9.63;;;6.30;;
45366;SDS011;31100;55.848;37.636;2023-03-23T09:06:25;10.60;;;6.70;;
45366;SDS011;31100;55.848;37.636;2023-03-23T09:08:51;10.02;;;6.53;;
45366;SDS011;31100;55.848;37.636;2023-03-23T09:11:17;10.35;;;6.95;;
45366;SDS011;31100;55.848;37.636;2023-03-23T09:13:42;10.30;;;6.80;;
45366;SDS011;31100;55.848;37.636;2023-03-23T09:16:08;9.32;;;6.20;;
45366;SDS011;31100;55.848;37.636;2023-03-23T09:18:34;9.32;;;6.05;;
45366;SDS011;31100;55.848;37.636;2023-03-23T09:21:00;10.07;;;6.30;;
45366;SDS011;31100;55.848;37.636;2023-03-23T09:23:27;9.30;;;6.07;;
45366;SDS011;31100;55.848;37.636;2023-03-23T09:25:52;12.15;;;7.07;;
45366;SDS011;31100;55.848;37.636;2023-03-23T09:28:18;13.43;;;7.07;;
45366;SDS011;31100;55.848;37.636;2023-03-23T09:30:45;12.32;;;6.47;;
45366;SDS011;31100;55.848;37.636;2023-03-23T09:33:10;10.13;;;6.57;;
45366;SDS011;31100;55.848;37.636;2023-03-23T09:35:36;13.43;;;6.30;;
45366;SDS011;31100;55.848;37.636;2023-03-23T09:38:04;11.70;;;6.25;;
45366;SDS011;31100;55.848;37.636;2023-03-23T09:43:11;10.85;;;7.03;;
45366;SDS011;31100;55.848;37.636;2023-03-23T09:51:30;9.52;;;6.07;;
45366;SDS011;31100;55.848;37.636;2023-03-23T09:57:25;8.48;;;5.78;;
45366;SDS011;31100;55.848;37.636;2023-03-23T10:00:12;7.75;;;5.63;;
45366;SDS011;31100;55.848;37.636;2023-03-23T10:02:43;8.63;;;5.70;;
45366;SDS011;31100;55.848;37.636;2023-03-23T10:08:08;9.63;;;5.40;;
45366;SDS011;31100;55.848;37.636;2023-03-23T10:10:45;7.47;;;5.03;;
45366;SDS011;31100;55.848;37.636;2023-03-23T10:13:26;8.85;;;5.82;;
45366;SDS011;31100;55.848;37.636;2023-03-23T10:18:46;9.05;;;5.13;;
45366;SDS011;31100;55.848;37.636;2023-03-23T10:21:16;9.30;;;4.78;;
45366;SDS011;31100;55.848;37.636;2023-03-23T10:24:02;10.68;;;5.55;;
45366;SDS011;31100;55.848;37.636;2023-03-23T10:29:15;6.45;;;4.65;;
45366;SDS011;31100;55.848;37.636;2023-03-23T10:31:52;10.07;;;5.30;;
45366;SDS011;31100;55.848;37.636;2023-03-23T10:34:23;10.27;;;4.75;;
45366;SDS011;31100;55.848;37.636;2023-03-23T10:42:29;6.28;;;4.63;;
45366;SDS011;31100;55.848;37.636;2023-03-23T10:44:59;7.20;;;5.05;;
45366;SDS011;31100;55.848;37.636;2023-03-23T10:47:26;8.48;;;5.00;;
45366;SDS011;31100;55.848;37.636;2023-03-23T10:50:02;8.75;;;4.90;;
45366;SDS011;31100;55.848;37.636;2023-03-23T10:55:02;8.52;;;4.45;;
45366;SDS011;31100;55.848;37.636;2023-03-23T10:57:31;8.32;;;4.60;;
45366;SDS011;31100;55.848;37.636;2023-03-23T11:02:39;6.35;;;4.38;;
45366;SDS011;31100;55.848;37.636;2023-03-23T11:05:13;9.55;;;4.78;;
45366;SDS011;31100;55.848;37.636;2023-03-23T11:07:48;5.75;;;4.18;;
45366;SDS011;31100;55.848;37.636;2023-03-23T11:10:21;9.23;;;4.90;;
45366;SDS011;31100;55.848;37.636;2023-03-23T11:12:48;7.18;;;4.22;;
45366;SDS011;31100;55.848;37.636;2023-03-23T11:15:23;7.70;;;4.00;;
45366;SDS011;31100;55.848;37.636;2023-03-23T11:17:56;8.38;;;4.88;;
45366;SDS011;31100;55.848;37.636;2023-03-23T11:20:24;13.18;;;4.93;;
45366;SDS011;31100;55.848;37.636;2023-03-23T11:22:51;8.02;;;4.60;;
45366;SDS011;31100;55.848;37.636;2023-03-23T11:25:17;10.73;;;4.82;;
45366;SDS011;31100;55.848;37.636;2023-03-23T11:27:43;7.40;;;5.45;;
45366;SDS011;31100;55.848;37.636;2023-03-23T11:30:10;8.23;;;4.47;;
45366;SDS011;31100;55.848;37.636;2023-03-23T11:32:42;8.00;;;4.57;;
45366;SDS011;31100;55.848;37.636;2023-03-23T11:35:23;6.05;;;4.00;;
45366;SDS011;31100;55.848;37.636;2023-03-23T11:37:53;8.50;;;4.15;;
45366;SDS011;31100;55.848;37.636;2023-03-23T11:40:24;7.15;;;4.15;;
45366;SDS011;31100;55.848;37.636;2023-03-23T11:45:19;7.10;;;4.00;;
45366;SDS011;31100;55.848;37.636;2023-03-23T11:48:12;8.73;;;4.13;;
45366;SDS011;31100;55.848;37.636;2023-03-23T11:51:45;9.05;;;5.57;;
45366;SDS011;31100;55.848;37.636;2023-03-23T11:56:36;5.88;;;3.90;;
45366;SDS011;31100;55.848;37.636;2023-03-23T11:59:05;7.72;;;4.22;;
45366;SDS011;31100;55.848;37.636;2023-03-23T12:04:30;6.43;;;3.65;;
45366;SDS011;31100;55.848;37.636;2023-03-23T12:15:20;5.80;;;3.28;;
45366;SDS011;31100;55.848;37.636;2023-03-23T12:20:20;7.93;;;4.47;;
45366;SDS011;31100;55.848;37.636;2023-03-23T12:22:59;5.20;;;3.65;;
45366;SDS011;31100;55.848;37.636;2023-03-23T12:30:57;7.15;;;4.13;;
45366;SDS011;31100;55.848;37.636;2023-03-23T12:45:19;10.35;;;4.43;;
45366;SDS011;31100;55.848;37.636;2023-03-23T12:48:11;7.70;;;3.92;;
45366;SDS011;31100;55.848;37.636;2023-03-23T12:50:40;9.82;;;4.07;;
45366;SDS011;31100;55.848;37.636;2023-03-23T12:56:27;7.45;;;4.15;;
45366;SDS011;31100;55.848;37.636;2023-03-23T12:58:29;8.30;;;4.03;;
45366;SDS011;31100;55.848;37.636;2023-03-23T13:06:29;7.82;;;4.35;;
45366;SDS011;31100;55.848;37.636;2023-03-23T13:09:15;7.00;;;3.72;;
45366;SDS011;31100;55.848;37.636;2023-03-23T13:11:53;8.27;;;3.67;;
45366;SDS011;31100;55.848;37.636;2023-03-23T13:20:23;6.38;;;3.90;;
45366;SDS011;31100;55.848;37.636;2023-03-23T13:28:27;5.45;;;3.80;;
45366;SDS011;31100;55.848;37.636;2023-03-23T13:30:55;5.97;;;3.88;;
45366;SDS011;31100;55.848;37.636;2023-03-23T13:33:28;7.03;;;4.47;;
45366;SDS011;31100;55.848;37.636;2023-03-23T13:35:54;7.50;;;3.90;;
45366;SDS011;31100;55.848;37.636;2023-03-23T13:38:27;7.85;;;4.10;;
45366;SDS011;31100;55.848;37.636;2023-03-23T13:40:56;6.03;;;4.05;;
45366;SDS011;31100;55.848;37.636;2023-03-23T13:43:32;7.75;;;4.47;;
45366;SDS011;31100;55.848;37.636;2023-03-23T13:46:13;8.10;;;4.40;;
45366;SDS011;31100;55.848;37.636;2023-03-23T13:49:13;7.38;;;4.47;;
45366;SDS011;31100;55.848;37.636;2023-03-23T13:56:56;8.00;;;4.30;;
45366;SDS011;31100;55.848;37.636;2023-03-23T14:01:52;9.02;;;4.28;;
45366;SDS011;31100;55.848;37.636;2023-03-23T14:04:23;8.75;;;4.47;;
45366;SDS011;31100;55.848;37.636;2023-03-23T14:06:56;7.38;;;4.03;;
45366;SDS011;31100;55.848;37.636;2023-03-23T14:09:25;8.65;;;4.93;;
45366;SDS011;31100;55.848;37.636;2023-03-23T14:11:58;7.72;;;3.60;;
45366;SDS011;31100;55.848;37.636;2023-03-23T14:14:38;9.32;;;4.00;;
45366;SDS011;31100;55.848;37.636;2023-03-23T14:17:18;7.70;;;3.95;;
45366;SDS011;31100;55.848;37.636;2023-03-23T14:19:54;10.73;;;4.28;;
45366;SDS011;31100;55.848;37.636;2023-03-23T14:22:54;9.25;;;4.47;;
45366;SDS011;31100;55.848;37.636;2023-03-23T14:27:40;7.05;;;4.03;;
45366;SDS011;31100;55.848;37.636;2023-03-23T14:30:20;12.05;;;4.32;;
45366;SDS011;31100;55.848;37.636;2023-03-23T14:32:47;7.78;;;4.18;;
45366;SDS011;31100;55.848;37.636;2023-03-23T14:35:26;9.48;;;4.00;;
45366;SDS011;31100;55.848;37.636;2023-03-23T14:37:54;6.50;;;4.03;;
45366;SDS011;31100;55.848;37.636;2023-03-23T14:40:20;10.05;;;3.88;;
45366;SDS011;31100;55.848;37.636;2023-03-23T14:42:46;8.85;;;4.40;;
45366;SDS011;31100;55.848;37.636;2023-03-23T14:45:14;8.27;;;4.25;;
45366;SDS011;31100;55.848;37.636;2023-03-23T14:47:51;12.27;;;4.88;;
45366;SDS011;31100;55.848;37.636;2023-03-23T14:53:10;11.05;;;4.40;;
45366;SDS011;31100;55.848;37.636;2023-03-23T14:55:41;7.82;;;4.20;;
45366;SDS011;31100;55.848;37.636;2023-03-23T14:58:08;9.57;;;4.45;;
45366;SDS011;31100;55.848;37.636;2023-03-23T15:00:35;9.00;;;4.10;;
45366;SDS011;31100;55.848;37.636;2023-03-23T15:03:04;7.65;;;4.43;;
45366;SDS011;31100;55.848;37.636;2023-03-23T15:05:33;9.27;;;4.22;;
45366;SDS011;31100;55.848;37.636;2023-03-23T15:13:44;9.02;;;4.15;;
45366;SDS011;31100;55.848;37.636;2023-03-23T15:16:18;8.85;;;4.82;;
45366;SDS011;31100;55.848;37.636;2023-03-23T15:19:04;7.72;;;4.07;;
45366;SDS011;31100;55.848;37.636;2023-03-23T15:24:24;10.27;;;4.82;;
45366;SDS011;31100;55.848;37.636;2023-03-23T15:29:31;6.88;;;4.20;;
45366;SDS011;31100;55.848;37.636;2023-03-23T15:31:57;9.52;;;4.72;;
45366;SDS011;31100;55.848;37.636;2023-03-23T15:34:28;7.88;;;4.70;;
45366;SDS011;31100;55.848;37.636;2023-03-23T15:37:20;6.43;;;4.57;;
45366;SDS011;31100;55.848;37.636;2023-03-23T15:39:46;8.25;;;4.30;;
45366;SDS011;31100;55.848;37.636;2023-03-23T15:42:45;5.72;;;4.03;;
45366;SDS011;31100;55.848;37.636;2023-03-23T15:47:46;7.85;;;4.20;;
45366;SDS011;31100;55.848;37.636;2023-03-23T15:52:40;10.98;;;4.55;;
45366;SDS011;31100;55.848;37.636;2023-03-23T15:57:55;8.65;;;4.80;;
45366;SDS011;31100;55.848;37.636;2023-03-23T16:00:22;8.10;;;4.22;;
45366;SDS011;31100;55.848;37.636;2023-03-23T16:03:01;8.65;;;4.50;;
45366;SDS011;31100;55.848;37.636;2023-03-23T16:05:30;8.63;;;4.50;;
45366;SDS011;31100;55.848;37.636;2023-03-23T16:07:56;10.55;;;5.13;;
45366;SDS011;31100;55.848;37.636;2023-03-23T16:10:23;14.75;;;5.40;;
45366;SDS011;31100;55.848;37.636;2023-03-23T16:12:49;14.02;;;5.03;;
45366;SDS011;31100;55.848;37.636;2023-03-23T16:15:15;10.02;;;4.75;;
45366;SDS011;31100;55.848;37.636;2023-03-23T16:17:41;8.63;;;4.72;;
45366;SDS011;31100;55.848;37.636;2023-03-23T16:20:14;7.75;;;4.55;;
45366;SDS011;31100;55.848;37.636;2023-03-23T16:22:43;9.43;;;4.30;;
45366;SDS011;31100;55.848;37.636;2023-03-23T16:25:09;7.97;;;4.63;;
45366;SDS011;31100;55.848;37.636;2023-03-23T16:27:36;9.95;;;4.47;;
45366;SDS011;31100;55.848;37.636;2023-03-23T16:30:09;8.85;;;5.03;;
45366;SDS011;31100;55.848;37.636;2023-03-23T16:32:37;10.75;;;4.65;;
45366;SDS011;31100;55.848;37.636;2023-03-23T16:35:03;7.57;;;4.65;;
45366;SDS011;31100;55.848;37.636;2023-03-23T16:37:29;10.07;;;4.35;;
45366;SDS011;31100;55.848;37.636;2023-03-23T16:39:57;9.88;;;4.88;;
45366;SDS011;31100;55.848;37.636;2023-03-23T16:42:22;11.45;;;5.95;;
45366;SDS011;31100;55.848;37.636;2023-03-23T16:44:48;10.82;;;5.13;;
45366;SDS011;31100;55.848;37.636;2023-03-23T16:47:16;9.05;;;4.82;;
45366;SDS011;31100;55.848;37.636;2023-03-23T16:49:43;8.98;;;4.20;;
45366;SDS011;31100;55.848;37.636;2023-03-23T16:52:08;10.82;;;4.93;;
45366;SDS011;31100;55.848;37.636;2023-03-23T16:54:34;7.22;;;4.60;;
45366;SDS011;31100;55.848;37.636;2023-03-23T16:57:00;9.43;;;4.82;;
45366;SDS011;31100;55.848;37.636;2023-03-23T16:59:26;8.57;;;4.70;;
45366;SDS011;31100;55.848;37.636;2023-03-23T17:01:54;8.75;;;4.90;;